Miniplon — FIDV — position and weather

sailwx.info

Track history (hours):
 
Tides and Currents Weather Stations Pressure Air Temp Water Temp Dewpoint Dewpoint Depression Visibility Wind Speed Wind Dir Waves Ship Positions

Miniplon

Last reported at 2014-Jul-26 16:33 UTC. Time now 2014-Jul-29 06:41 UTC.
Position N 46°30' W 001°47'.

Length 22 m.

Type: SAR. MMSI: 228024600.

Date/timePositionNaut miles runAvg speedWind from/ knotsBaromVisibWave heightAir tempDewpointWater temp
2014-Jul-26 16:33N 46°30' W 001°47'7 7.4
2014-Jul-26 15:33N 46°34' W 001°56'  
2014-Jul-18 07:03N 46°41' W 001°57'4 8.5
2014-Jul-18 06:33N 46°37' W 001°55'9 9.2
2014-Jul-18 05:33N 46°29' W 001°50'2 1.9
2014-Jul-18 04:32N 46°30' W 001°48'0 0.3
2014-Jul-18 03:32N 46°30' W 001°47'0 0.0
2014-Jul-18 02:32N 46°30' W 001°47'0 0.0
2014-Jul-18 01:32N 46°30' W 001°47'0 0.0
2014-Jul-18 00:32N 46°30' W 001°47'0 0.0
2014-Jul-17 23:32N 46°30' W 001°47'0 0.0
2014-Jul-17 22:32N 46°30' W 001°47'0 0.0
2014-Jul-17 21:32N 46°30' W 001°47'0 0.0
2014-Jul-17 20:32N 46°30' W 001°47'0 0.1
2014-Jul-17 19:31N 46°30' W 001°47'0 0.0
2014-Jul-17 18:33N 46°30' W 001°47'7 7.5
2014-Jul-17 17:33N 46°33' W 001°58'  
Track history (hours):
 
Tides and Currents Weather Stations Pressure Air Temp Water Temp Dewpoint Dewpoint Depression Visibility Wind Speed Wind Dir Waves Ship Positions

Miniplon

Last reported at 2014-Jul-26 16:33 UTC. Time now 2014-Jul-29 06:41 UTC.
Position N 46°30' W 001°47'.

Length 22 m.

Type: SAR. MMSI: 228024600.

Date/timePositionNaut miles runAvg speedWind from/ knotsBaromVisibWave heightAir tempDewpointWater temp
2014-Jul-26 16:33N 46°30' W 001°47'7 7.4
2014-Jul-26 15:33N 46°34' W 001°56'  
2014-Jul-18 07:03N 46°41' W 001°57'4 8.5
2014-Jul-18 06:33N 46°37' W 001°55'9 9.2
2014-Jul-18 05:33N 46°29' W 001°50'2 1.9
2014-Jul-18 04:32N 46°30' W 001°48'0 0.3
2014-Jul-18 03:32N 46°30' W 001°47'0 0.0
2014-Jul-18 02:32N 46°30' W 001°47'0 0.0
2014-Jul-18 01:32N 46°30' W 001°47'0 0.0
2014-Jul-18 00:32N 46°30' W 001°47'0 0.0
2014-Jul-17 23:32N 46°30' W 001°47'0 0.0
2014-Jul-17 22:32N 46°30' W 001°47'0 0.0
2014-Jul-17 21:32N 46°30' W 001°47'0 0.0
2014-Jul-17 20:32N 46°30' W 001°47'0 0.1
2014-Jul-17 19:31N 46°30' W 001°47'0 0.0
2014-Jul-17 18:33N 46°30' W 001°47'7 7.5
2014-Jul-17 17:33N 46°33' W 001°58'  

Dump ship's entire track history